»·PEaware :: N24CW KAPA-KASE

N24CW :: KAPA-KASE

FLIGHT INFORMATION

Flight Status: Arrived
Operator: Privately registered:
United States
More flights under this callsign
Pilot: Alfonso U. (14209)
Aircraft: BEECH AIRCRAFT BARON
(BE58)
More flights by this aircraft type
Origin: KAPA Centennial
United States
Destination: KASE Aspen-Pitkin Co/Sardy
United States
More flights between these airports :: More routes between these airports
Route: +VFR
File this flight plan on PilotEdge
Remarks:
Altitude:
(Current/Filed)
12,000ft
Speed:
(Current/Filed)
200kts
Departed: 15-Dec-17 11:12 AM
Arrived: 15-Dec-17 12:01 PM
Distance/Time
Traveled:
96nm/0:49
Distance/Time
To Go:
Arrived

Flight Plot

Page will automatically refresh every two minutes.

Flight plan parsing failed; only flown route is shown


Map Options




Map Legend


Flown Route
Filed Route
Departure Airport
Arrival Airport
Navaid (VOR, NDB)
Fix

Horizontal Profiles

Position Reports

Time Latitude Longitude Heading Altitude Ground
Speed
15-Dec-17 11:06 39.580273 -104.848825 89 5799ft 0kts
15-Dec-17 11:07 39.580273 -104.848825 89 5799ft 0kts
15-Dec-17 11:08 39.580273 -104.848825 89 5799ft 0kts
15-Dec-17 11:11 39.580273 -104.848825 90 5799ft 0kts
15-Dec-17 11:12 39.580273 -104.848825 90 5799ft 0kts
15-Dec-17 11:13 39.580273 -104.848825 90 5799ft 0kts
15-Dec-17 11:14 39.580601 -104.848933 319 5798ft 9kts
15-Dec-17 11:15 39.581476 -104.849944 357 5799ft 18kts
15-Dec-17 11:16 39.584106 -104.850303 272 5790ft 0kts
15-Dec-17 11:17 39.583873 -104.851439 187 5792ft 8kts
15-Dec-17 11:18 39.563726 -104.849364 181 6347ft 107kts
15-Dec-17 11:19 39.549103 -104.866234 276 7421ft 99kts
15-Dec-17 11:20 39.554363 -104.893986 284 8462ft 100kts
15-Dec-17 11:21 39.559677 -104.922436 283 9355ft 104kts
15-Dec-17 11:22 39.565552 -104.952223 284 10183ft 110kts
15-Dec-17 11:23 39.572193 -104.987540 283 10306ft 150kts
15-Dec-17 11:24 39.580430 -105.034210 282 10098ft 171kts
15-Dec-17 11:25 39.589845 -105.083137 283 10084ft 172kts
15-Dec-17 11:26 39.600490 -105.134963 280 10016ft 175kts
15-Dec-17 11:27 39.608495 -105.185707 283 10230ft 168kts
15-Dec-17 11:28 39.619329 -105.242023 280 10157ft 172kts
15-Dec-17 11:29 39.630237 -105.295827 282 9870ft 149kts
15-Dec-17 11:30 39.638745 -105.343231 281 10083ft 144kts
15-Dec-17 11:31 39.648156 -105.393068 283 10429ft 156kts
15-Dec-17 11:32 39.659211 -105.443438 283 11084ft 144kts
15-Dec-17 11:33 39.667057 -105.491090 281 11639ft 144kts
15-Dec-17 11:34 39.675277 -105.539146 281 12246ft 142kts
15-Dec-17 11:35 39.684230 -105.588429 282 12732ft 145kts
15-Dec-17 11:36 39.690064 -105.639682 285 13094ft 149kts
15-Dec-17 11:37 39.697570 -105.689922 262 13290ft 154kts
15-Dec-17 11:38 39.690516 -105.744512 261 13397ft 161kts
15-Dec-17 11:39 39.684158 -105.801895 261 13396ft 165kts
15-Dec-17 11:40 39.677377 -105.859268 265 13392ft 164kts
15-Dec-17 11:41 39.671468 -105.916838 259 13451ft 163kts
15-Dec-17 11:42 39.666348 -105.973209 272 13485ft 162kts
15-Dec-17 11:43 39.670147 -106.031174 275 13318ft 158kts
15-Dec-17 11:44 39.664569 -106.084963 240 13225ft 155kts
15-Dec-17 11:45 39.649493 -106.133486 258 13417ft 144kts
15-Dec-17 11:46 39.639384 -106.186160 256 13187ft 158kts
15-Dec-17 11:47 39.634090 -106.239728 261 13270ft 150kts
15-Dec-17 11:48 39.627657 -106.294172 262 13084ft 157kts
15-Dec-17 11:49 39.616436 -106.345200 248 13066ft 159kts
15-Dec-17 11:50 39.599911 -106.394333 246 13323ft 143kts
15-Dec-17 11:51 39.583310 -106.443094 249 13152ft 157kts
15-Dec-17 11:52 39.568704 -106.493642 252 13239ft 152kts
15-Dec-17 11:53 39.552468 -106.542613 250 13368ft 147kts
15-Dec-17 11:54 39.537153 -106.591783 246 13351ft 152kts
15-Dec-17 11:55 39.521459 -106.642455 252 13247ft 157kts
15-Dec-17 11:56 39.505070 -106.690707 248 13152ft 158kts
15-Dec-17 11:57 39.488836 -106.740324 249 12822ft 171kts
15-Dec-17 11:58 39.471828 -106.794043 246 12388ft 171kts
15-Dec-17 11:59 39.454861 -106.845008 246 12282ft 163kts
15-Dec-17 12:00 39.433880 -106.892689 205 12256ft 158kts
15-Dec-17 12:01 39.390609 -106.888710 178 11500ft 170kts
15-Dec-17 12:02 39.346545 -106.883945 181 10840ft 170kts
15-Dec-17 12:03 39.308578 -106.889413 193 8988ft 140kts
15-Dec-17 12:04 39.278324 -106.884060 171 7974ft 115kts
15-Dec-17 12:05 39.249641 -106.880494 171 8237ft 124kts
15-Dec-17 12:06 39.225612 -106.870026 162 7713ft 62kts
15-Dec-17 12:07 39.222005 -106.867112 154 7746ft 8kts
15-Dec-17 12:08 39.220469 -106.865451 155 7762ft 2kts

Navigation Log

Ident Type
Flight plan parsing failed, navigation log unavailable